Αρχική σελίδα
METAR-TAF:

METAR-TAF

Αεροδρόμια :

Mitiga International Airport

Τρίπολη, Λιβύη

γεωγραφικό πλάτος: 32-54N, γεωγραφικό μήκος: 13-17E, υψόμετρο: 11 μ

Παρών καιρός

Η αναφορά έγινε 49 λεπτά πριν, στις 20:50 UTC
Άνεμος 5 kt από Α
Θερμοκρασία 24°C
Υγρασία 74%
Πίεση 1017 hPa
Ορατότητα: 8000 μ
Καθαρός ουρανός

METAR: HLLM 232050Z 10005KT 8000 SKC 24/19 Q1017

Χρόνος: 23:39 (21:39 UTC)

Πρόγνωση Καιρού

Η αναφορά έγινε 16 ώρες και 39 λεπτά πριν, στις 05:00 UTC
Η πρόγνωση ισχύει από τις 23 στις 06 UTC έως τις 24 στις 06 UTC
Άνεμος 2 kt από μεταβλητές κατευθύνσεις
Ορατότητα: 8000 μ
Καθιστάμενος
από 23 στις 10 UTC έως τις 23 στις 12 UTC
Άνεμος 10 kt από Α/BA

TAF: HLLM 230500Z 2306/2406 VRB02KT 8000 NSC BECMG 2310/2312 06010KT

Μετεωρολογικές αναφορές και προγνώσεις για περισσότερα από 4000 αεροδρόμια (δελτία METAR και TAF).

Οι διαθέσιμοι σταθμοί απεικονίζονται στο χάρτη με κίτρινες και κόκκινες κουκκίδες.

Μετακινήστε το ποντίκι πάνω από τις κουκκίδες για να δείτε το όνομα του σταθμού.

Στη συνέχεια, κάντε κλικ για να δείτε τις μετεωρολογικές αναφορές και τις προγνώσεις καιρού.

Για να αλλάξετε το χάρτη: κάντε κλικ στα πράσινα κουμπιά με τον μαύρο σταυρό για να ζουμάρετε, στο πράσινο κουμπί με την παύλα για να αφαιρέσετε το ζουμ ή στα πράσινα βέλη για να αντιπαραβάλλετε χάρτες.


METAR-TAF: